Terminal Aerodrome Forecast
Issued by NWS Sioux Falls, SD

Home | Current Version | Previous Version | Text Only | Print | Product List | Glossary Off
Versions: 1 2 3 4 5 6 7 8 9 10 11 12 13 14 15

000
FTUS43 KFSD 271740
TAFFSD
TAF
KFSD 271740Z 2718/2818 18010KT P6SM BKN100
     FM272100 17012KT P6SM OVC060
     FM280000 15010KT 3SM -SN OVC030
      TEMPO 2800/2804 1SM -SN OVC015
     FM280500 12008KT P6SM OVC025
     FM281500 15014KT P6SM BKN040=

USA.gov is the U.S. government's official web portal to all federal, state and local government web resources and services.